sensor_id;sensor_type;location;lat;lon;timestamp;P1;durP1;ratioP1;P2;durP2;ratioP2
52866;SDS011;38739;53.324;6.862;2022-12-29T00:01:55;5.95;;;5.30;;
52866;SDS011;38739;53.324;6.862;2022-12-29T00:04:42;6.47;;;5.63;;
52866;SDS011;38739;53.324;6.862;2022-12-29T00:07:28;7.90;;;5.50;;
52866;SDS011;38739;53.324;6.862;2022-12-29T00:10:10;5.60;;;4.97;;
52866;SDS011;38739;53.324;6.862;2022-12-29T00:13:18;5.70;;;4.70;;
52866;SDS011;38739;53.324;6.862;2022-12-29T00:16:13;6.30;;;4.97;;
52866;SDS011;38739;53.324;6.862;2022-12-29T00:18:47;5.80;;;5.20;;
52866;SDS011;38739;53.324;6.862;2022-12-29T00:21:14;6.90;;;5.32;;
52866;SDS011;38739;53.324;6.862;2022-12-29T00:24:20;6.25;;;5.57;;
52866;SDS011;38739;53.324;6.862;2022-12-29T00:26:55;7.63;;;6.13;;
52866;SDS011;38739;53.324;6.862;2022-12-29T00:29:50;7.10;;;5.70;;
52866;SDS011;38739;53.324;6.862;2022-12-29T00:32:35;6.70;;;5.53;;
52866;SDS011;38739;53.324;6.862;2022-12-29T00:35:29;7.40;;;5.78;;
52866;SDS011;38739;53.324;6.862;2022-12-29T00:38:03;6.53;;;5.32;;
52866;SDS011;38739;53.324;6.862;2022-12-29T00:40:51;7.53;;;5.07;;
52866;SDS011;38739;53.324;6.862;2022-12-29T00:43:35;6.00;;;5.45;;
52866;SDS011;38739;53.324;6.862;2022-12-29T00:46:19;6.75;;;5.40;;
52866;SDS011;38739;53.324;6.862;2022-12-29T00:48:45;5.70;;;5.13;;
52866;SDS011;38739;53.324;6.862;2022-12-29T00:51:29;5.95;;;5.00;;
52866;SDS011;38739;53.324;6.862;2022-12-29T00:53:55;6.00;;;5.47;;
52866;SDS011;38739;53.324;6.862;2022-12-29T00:56:21;5.75;;;4.80;;
52866;SDS011;38739;53.324;6.862;2022-12-29T00:58:46;5.70;;;5.18;;
52866;SDS011;38739;53.324;6.862;2022-12-29T01:01:12;7.70;;;5.15;;
52866;SDS011;38739;53.324;6.862;2022-12-29T01:03:38;7.35;;;5.32;;
52866;SDS011;38739;53.324;6.862;2022-12-29T01:06:04;6.85;;;5.15;;
52866;SDS011;38739;53.324;6.862;2022-12-29T01:08:32;5.88;;;5.28;;
52866;SDS011;38739;53.324;6.862;2022-12-29T01:11:02;6.63;;;5.60;;
52866;SDS011;38739;53.324;6.862;2022-12-29T01:13:30;6.15;;;4.72;;
52866;SDS011;38739;53.324;6.862;2022-12-29T01:15:56;5.63;;;5.00;;
52866;SDS011;38739;53.324;6.862;2022-12-29T01:18:22;6.07;;;5.30;;
52866;SDS011;38739;53.324;6.862;2022-12-29T01:20:49;5.85;;;5.25;;
52866;SDS011;38739;53.324;6.862;2022-12-29T01:23:15;7.25;;;5.05;;
52866;SDS011;38739;53.324;6.862;2022-12-29T01:25:41;6.07;;;4.90;;
52866;SDS011;38739;53.324;6.862;2022-12-29T01:28:07;6.25;;;5.18;;
52866;SDS011;38739;53.324;6.862;2022-12-29T01:30:36;6.38;;;5.10;;
52866;SDS011;38739;53.324;6.862;2022-12-29T01:33:01;7.25;;;4.97;;
52866;SDS011;38739;53.324;6.862;2022-12-29T01:35:28;6.95;;;5.25;;
52866;SDS011;38739;53.324;6.862;2022-12-29T01:37:54;5.85;;;5.00;;
52866;SDS011;38739;53.324;6.862;2022-12-29T01:40:19;7.78;;;5.50;;
52866;SDS011;38739;53.324;6.862;2022-12-29T01:42:45;6.72;;;5.70;;
52866;SDS011;38739;53.324;6.862;2022-12-29T01:45:14;6.63;;;5.05;;
52866;SDS011;38739;53.324;6.862;2022-12-29T01:47:43;6.90;;;5.10;;
52866;SDS011;38739;53.324;6.862;2022-12-29T01:53:12;5.93;;;5.00;;
52866;SDS011;38739;53.324;6.862;2022-12-29T01:55:43;5.95;;;5.35;;
52866;SDS011;38739;53.324;6.862;2022-12-29T01:58:13;5.75;;;5.18;;
52866;SDS011;38739;53.324;6.862;2022-12-29T02:00:40;6.32;;;5.40;;
52866;SDS011;38739;53.324;6.862;2022-12-29T02:03:06;7.53;;;6.32;;
52866;SDS011;38739;53.324;6.862;2022-12-29T02:05:47;6.72;;;5.82;;
52866;SDS011;38739;53.324;6.862;2022-12-29T02:08:53;8.73;;;5.85;;
52866;SDS011;38739;53.324;6.862;2022-12-29T02:11:20;7.80;;;6.50;;
52866;SDS011;38739;53.324;6.862;2022-12-29T02:13:48;8.18;;;6.70;;
52866;SDS011;38739;53.324;6.862;2022-12-29T02:16:25;9.75;;;6.60;;
52866;SDS011;38739;53.324;6.862;2022-12-29T02:27:50;7.72;;;5.45;;
52866;SDS011;38739;53.324;6.862;2022-12-29T02:30:40;7.45;;;5.35;;
52866;SDS011;38739;53.324;6.862;2022-12-29T02:33:39;5.50;;;4.63;;
52866;SDS011;38739;53.324;6.862;2022-12-29T02:47:09;5.53;;;4.13;;
52866;SDS011;38739;53.324;6.862;2022-12-29T02:52:17;5.18;;;4.30;;
52866;SDS011;38739;53.324;6.862;2022-12-29T02:54:48;5.40;;;4.00;;
52866;SDS011;38739;53.324;6.862;2022-12-29T02:57:26;6.65;;;4.30;;
52866;SDS011;38739;53.324;6.862;2022-12-29T03:05:42;6.47;;;4.13;;
52866;SDS011;38739;53.324;6.862;2022-12-29T03:11:17;4.93;;;3.60;;
52866;SDS011;38739;53.324;6.862;2022-12-29T03:14:04;6.38;;;3.70;;
52866;SDS011;38739;53.324;6.862;2022-12-29T03:16:59;4.68;;;3.70;;
52866;SDS011;38739;53.324;6.862;2022-12-29T03:19:34;7.35;;;3.60;;
52866;SDS011;38739;53.324;6.862;2022-12-29T03:22:08;6.32;;;3.65;;
52866;SDS011;38739;53.324;6.862;2022-12-29T03:24:54;4.97;;;3.55;;
52866;SDS011;38739;53.324;6.862;2022-12-29T03:27:38;5.00;;;3.10;;
52866;SDS011;38739;53.324;6.862;2022-12-29T03:30:10;5.60;;;3.28;;
52866;SDS011;38739;53.324;6.862;2022-12-29T03:32:39;7.75;;;3.45;;
52866;SDS011;38739;53.324;6.862;2022-12-29T03:35:13;4.85;;;3.55;;
52866;SDS011;38739;53.324;6.862;2022-12-29T03:37:49;4.10;;;2.70;;
52866;SDS011;38739;53.324;6.862;2022-12-29T03:40:31;5.03;;;2.72;;
52866;SDS011;38739;53.324;6.862;2022-12-29T03:42:59;4.28;;;2.97;;
52866;SDS011;38739;53.324;6.862;2022-12-29T03:45:25;3.05;;;2.60;;
52866;SDS011;38739;53.324;6.862;2022-12-29T03:47:51;2.88;;;2.40;;
52866;SDS011;38739;53.324;6.862;2022-12-29T03:50:18;4.28;;;2.40;;
52866;SDS011;38739;53.324;6.862;2022-12-29T03:52:43;4.90;;;2.00;;
52866;SDS011;38739;53.324;6.862;2022-12-29T03:55:09;4.50;;;2.05;;
52866;SDS011;38739;53.324;6.862;2022-12-29T03:57:35;4.18;;;1.73;;
52866;SDS011;38739;53.324;6.862;2022-12-29T04:00:01;4.35;;;1.67;;
52866;SDS011;38739;53.324;6.862;2022-12-29T04:02:26;5.18;;;1.73;;
52866;SDS011;38739;53.324;6.862;2022-12-29T04:04:52;5.32;;;1.95;;
52866;SDS011;38739;53.324;6.862;2022-12-29T04:07:18;2.55;;;1.55;;
52866;SDS011;38739;53.324;6.862;2022-12-29T04:09:43;3.58;;;1.70;;
52866;SDS011;38739;53.324;6.862;2022-12-29T04:12:09;6.22;;;2.08;;
52866;SDS011;38739;53.324;6.862;2022-12-29T04:14:35;5.03;;;1.90;;
52866;SDS011;38739;53.324;6.862;2022-12-29T04:17:00;4.47;;;1.98;;
52866;SDS011;38739;53.324;6.862;2022-12-29T04:19:26;5.63;;;1.90;;
52866;SDS011;38739;53.324;6.862;2022-12-29T04:21:51;2.50;;;1.70;;
52866;SDS011;38739;53.324;6.862;2022-12-29T04:24:17;4.72;;;2.03;;
52866;SDS011;38739;53.324;6.862;2022-12-29T04:26:43;4.53;;;2.30;;
52866;SDS011;38739;53.324;6.862;2022-12-29T04:29:08;4.20;;;2.20;;
52866;SDS011;38739;53.324;6.862;2022-12-29T04:31:34;5.22;;;2.45;;
52866;SDS011;38739;53.324;6.862;2022-12-29T04:34:00;4.93;;;2.15;;
52866;SDS011;38739;53.324;6.862;2022-12-29T04:36:26;3.75;;;2.00;;
52866;SDS011;38739;53.324;6.862;2022-12-29T04:38:51;4.10;;;1.60;;
52866;SDS011;38739;53.324;6.862;2022-12-29T04:41:17;4.40;;;1.77;;
52866;SDS011;38739;53.324;6.862;2022-12-29T04:43:43;6.07;;;1.90;;
52866;SDS011;38739;53.324;6.862;2022-12-29T04:46:08;4.68;;;1.98;;
52866;SDS011;38739;53.324;6.862;2022-12-29T04:48:34;4.47;;;1.50;;
52866;SDS011;38739;53.324;6.862;2022-12-29T04:51:00;7.55;;;1.77;;
52866;SDS011;38739;53.324;6.862;2022-12-29T04:53:26;6.95;;;1.50;;
52866;SDS011;38739;53.324;6.862;2022-12-29T04:55:51;6.65;;;2.08;;
52866;SDS011;38739;53.324;6.862;2022-12-29T04:58:18;9.02;;;1.77;;
52866;SDS011;38739;53.324;6.862;2022-12-29T05:00:44;5.35;;;1.40;;
52866;SDS011;38739;53.324;6.862;2022-12-29T05:03:10;3.92;;;1.40;;
52866;SDS011;38739;53.324;6.862;2022-12-29T05:05:36;6.60;;;1.45;;
52866;SDS011;38739;53.324;6.862;2022-12-29T05:08:02;9.05;;;1.63;;
52866;SDS011;38739;53.324;6.862;2022-12-29T05:10:27;5.68;;;1.40;;
52866;SDS011;38739;53.324;6.862;2022-12-29T05:12:53;7.70;;;1.27;;
52866;SDS011;38739;53.324;6.862;2022-12-29T05:15:19;6.18;;;1.15;;
52866;SDS011;38739;53.324;6.862;2022-12-29T05:17:44;7.43;;;1.67;;
52866;SDS011;38739;53.324;6.862;2022-12-29T05:20:10;5.47;;;1.40;;
52866;SDS011;38739;53.324;6.862;2022-12-29T05:22:36;8.80;;;1.77;;
52866;SDS011;38739;53.324;6.862;2022-12-29T05:25:02;10.07;;;1.80;;
52866;SDS011;38739;53.324;6.862;2022-12-29T05:27:28;10.20;;;1.80;;
52866;SDS011;38739;53.324;6.862;2022-12-29T05:29:53;9.43;;;1.45;;
52866;SDS011;38739;53.324;6.862;2022-12-29T05:32:19;10.70;;;1.70;;
52866;SDS011;38739;53.324;6.862;2022-12-29T05:34:45;9.18;;;2.03;;
52866;SDS011;38739;53.324;6.862;2022-12-29T05:37:10;9.35;;;2.00;;
52866;SDS011;38739;53.324;6.862;2022-12-29T05:39:36;11.02;;;2.00;;
52866;SDS011;38739;53.324;6.862;2022-12-29T05:42:02;11.07;;;1.90;;
52866;SDS011;38739;53.324;6.862;2022-12-29T05:44:28;12.50;;;2.08;;
52866;SDS011;38739;53.324;6.862;2022-12-29T05:46:53;11.10;;;2.08;;
52866;SDS011;38739;53.324;6.862;2022-12-29T05:49:19;8.43;;;1.50;;
52866;SDS011;38739;53.324;6.862;2022-12-29T05:51:45;10.07;;;2.00;;
52866;SDS011;38739;53.324;6.862;2022-12-29T05:54:10;10.35;;;1.70;;
52866;SDS011;38739;53.324;6.862;2022-12-29T05:56:36;10.23;;;1.85;;
52866;SDS011;38739;53.324;6.862;2022-12-29T05:59:02;10.70;;;2.30;;
52866;SDS011;38739;53.324;6.862;2022-12-29T06:01:27;8.10;;;1.70;;
52866;SDS011;38739;53.324;6.862;2022-12-29T06:03:53;12.07;;;2.17;;
52866;SDS011;38739;53.324;6.862;2022-12-29T06:06:19;8.25;;;1.95;;
52866;SDS011;38739;53.324;6.862;2022-12-29T06:08:45;9.23;;;2.05;;
52866;SDS011;38739;53.324;6.862;2022-12-29T06:11:10;13.38;;;2.30;;
52866;SDS011;38739;53.324;6.862;2022-12-29T06:13:36;12.77;;;2.30;;
52866;SDS011;38739;53.324;6.862;2022-12-29T06:16:02;12.73;;;2.08;;
52866;SDS011;38739;53.324;6.862;2022-12-29T06:18:28;9.27;;;2.20;;
52866;SDS011;38739;53.324;6.862;2022-12-29T06:20:54;9.18;;;1.70;;
52866;SDS011;38739;53.324;6.862;2022-12-29T06:23:23;11.35;;;1.88;;
52866;SDS011;38739;53.324;6.862;2022-12-29T06:25:49;12.27;;;2.10;;
52866;SDS011;38739;53.324;6.862;2022-12-29T06:28:15;14.85;;;2.28;;
52866;SDS011;38739;53.324;6.862;2022-12-29T06:30:43;11.18;;;2.05;;
52866;SDS011;38739;53.324;6.862;2022-12-29T06:33:10;12.00;;;1.90;;
52866;SDS011;38739;53.324;6.862;2022-12-29T06:35:36;15.43;;;2.35;;
52866;SDS011;38739;53.324;6.862;2022-12-29T06:38:02;18.02;;;2.42;;
52866;SDS011;38739;53.324;6.862;2022-12-29T06:40:28;12.25;;;2.30;;
52866;SDS011;38739;53.324;6.862;2022-12-29T06:42:53;8.07;;;1.58;;
52866;SDS011;38739;53.324;6.862;2022-12-29T06:45:19;13.88;;;2.08;;
52866;SDS011;38739;53.324;6.862;2022-12-29T06:47:45;12.98;;;2.30;;
52866;SDS011;38739;53.324;6.862;2022-12-29T06:50:10;16.90;;;2.50;;
52866;SDS011;38739;53.324;6.862;2022-12-29T06:52:36;10.10;;;2.10;;
52866;SDS011;38739;53.324;6.862;2022-12-29T06:55:02;13.35;;;2.08;;
52866;SDS011;38739;53.324;6.862;2022-12-29T06:57:28;14.88;;;2.20;;
52866;SDS011;38739;53.324;6.862;2022-12-29T06:59:54;10.20;;;1.90;;
52866;SDS011;38739;53.324;6.862;2022-12-29T07:02:22;12.52;;;2.30;;
52866;SDS011;38739;53.324;6.862;2022-12-29T07:04:50;13.30;;;2.50;;
52866;SDS011;38739;53.324;6.862;2022-12-29T07:07:17;12.52;;;2.03;;
52866;SDS011;38739;53.324;6.862;2022-12-29T07:09:44;14.65;;;2.35;;
52866;SDS011;38739;53.324;6.862;2022-12-29T07:12:11;10.73;;;1.80;;
52866;SDS011;38739;53.324;6.862;2022-12-29T07:14:37;14.38;;;2.67;;
52866;SDS011;38739;53.324;6.862;2022-12-29T07:17:02;13.70;;;2.33;;
52866;SDS011;38739;53.324;6.862;2022-12-29T07:19:31;11.30;;;2.08;;
52866;SDS011;38739;53.324;6.862;2022-12-29T07:21:57;13.07;;;2.35;;
52866;SDS011;38739;53.324;6.862;2022-12-29T07:24:23;15.25;;;2.45;;
52866;SDS011;38739;53.324;6.862;2022-12-29T07:26:50;15.00;;;2.40;;
52866;SDS011;38739;53.324;6.862;2022-12-29T07:29:16;19.42;;;2.15;;
52866;SDS011;38739;53.324;6.862;2022-12-29T07:31:42;14.93;;;1.98;;
52866;SDS011;38739;53.324;6.862;2022-12-29T07:34:08;14.32;;;2.40;;
52866;SDS011;38739;53.324;6.862;2022-12-29T07:36:34;12.85;;;2.00;;
52866;SDS011;38739;53.324;6.862;2022-12-29T07:39:00;15.15;;;2.47;;
52866;SDS011;38739;53.324;6.862;2022-12-29T07:41:27;17.25;;;2.05;;
52866;SDS011;38739;53.324;6.862;2022-12-29T07:43:52;17.35;;;2.25;;
52866;SDS011;38739;53.324;6.862;2022-12-29T07:46:18;16.73;;;2.60;;
52866;SDS011;38739;53.324;6.862;2022-12-29T07:48:44;12.25;;;2.53;;
52866;SDS011;38739;53.324;6.862;2022-12-29T07:51:10;11.02;;;2.00;;
52866;SDS011;38739;53.324;6.862;2022-12-29T07:53:36;11.20;;;2.22;;
52866;SDS011;38739;53.324;6.862;2022-12-29T07:56:04;13.93;;;2.47;;
52866;SDS011;38739;53.324;6.862;2022-12-29T07:58:34;13.25;;;2.30;;
52866;SDS011;38739;53.324;6.862;2022-12-29T08:01:00;10.95;;;1.92;;
52866;SDS011;38739;53.324;6.862;2022-12-29T08:03:29;14.00;;;2.17;;
52866;SDS011;38739;53.324;6.862;2022-12-29T08:06:25;11.48;;;2.10;;
52866;SDS011;38739;53.324;6.862;2022-12-29T08:09:14;14.00;;;2.60;;
52866;SDS011;38739;53.324;6.862;2022-12-29T08:11:46;15.40;;;2.75;;
52866;SDS011;38739;53.324;6.862;2022-12-29T08:14:23;14.77;;;2.50;;
52866;SDS011;38739;53.324;6.862;2022-12-29T08:16:55;13.95;;;2.47;;
52866;SDS011;38739;53.324;6.862;2022-12-29T08:19:21;16.02;;;2.97;;
52866;SDS011;38739;53.324;6.862;2022-12-29T08:21:46;9.52;;;2.42;;
52866;SDS011;38739;53.324;6.862;2022-12-29T08:24:12;10.68;;;2.28;;
52866;SDS011;38739;53.324;6.862;2022-12-29T08:26:38;15.02;;;2.83;;
52866;SDS011;38739;53.324;6.862;2022-12-29T08:29:03;18.23;;;2.97;;
52866;SDS011;38739;53.324;6.862;2022-12-29T08:31:29;10.18;;;2.33;;
52866;SDS011;38739;53.324;6.862;2022-12-29T08:33:55;16.60;;;2.60;;
52866;SDS011;38739;53.324;6.862;2022-12-29T08:36:21;15.35;;;2.63;;
52866;SDS011;38739;53.324;6.862;2022-12-29T08:38:46;20.85;;;2.80;;
52866;SDS011;38739;53.324;6.862;2022-12-29T08:41:12;16.65;;;2.88;;
52866;SDS011;38739;53.324;6.862;2022-12-29T08:43:38;12.55;;;2.47;;
52866;SDS011;38739;53.324;6.862;2022-12-29T08:46:03;18.95;;;2.72;;
52866;SDS011;38739;53.324;6.862;2022-12-29T08:48:29;16.23;;;2.42;;
52866;SDS011;38739;53.324;6.862;2022-12-29T08:50:55;11.88;;;2.25;;
52866;SDS011;38739;53.324;6.862;2022-12-29T08:53:20;15.77;;;2.97;;
52866;SDS011;38739;53.324;6.862;2022-12-29T08:55:46;18.48;;;2.88;;
52866;SDS011;38739;53.324;6.862;2022-12-29T08:58:19;17.10;;;2.85;;
52866;SDS011;38739;53.324;6.862;2022-12-29T09:00:44;17.48;;;2.95;;
52866;SDS011;38739;53.324;6.862;2022-12-29T09:03:10;22.33;;;3.10;;
52866;SDS011;38739;53.324;6.862;2022-12-29T09:05:36;15.63;;;2.60;;
52866;SDS011;38739;53.324;6.862;2022-12-29T09:08:02;17.50;;;3.45;;
52866;SDS011;38739;53.324;6.862;2022-12-29T09:10:28;16.45;;;2.67;;
52866;SDS011;38739;53.324;6.862;2022-12-29T09:12:53;16.50;;;2.83;;
52866;SDS011;38739;53.324;6.862;2022-12-29T09:15:19;18.23;;;3.35;;
52866;SDS011;38739;53.324;6.862;2022-12-29T09:17:45;19.38;;;2.95;;
52866;SDS011;38739;53.324;6.862;2022-12-29T09:20:15;22.98;;;3.20;;
52866;SDS011;38739;53.324;6.862;2022-12-29T09:22:42;19.38;;;2.60;;
52866;SDS011;38739;53.324;6.862;2022-12-29T09:25:09;16.02;;;2.42;;
52866;SDS011;38739;53.324;6.862;2022-12-29T09:27:36;21.40;;;3.60;;
52866;SDS011;38739;53.324;6.862;2022-12-29T09:30:06;19.48;;;3.58;;
52866;SDS011;38739;53.324;6.862;2022-12-29T09:32:34;22.83;;;3.40;;
52866;SDS011;38739;53.324;6.862;2022-12-29T09:35:00;19.83;;;3.67;;
52866;SDS011;38739;53.324;6.862;2022-12-29T09:37:25;23.40;;;3.58;;
52866;SDS011;38739;53.324;6.862;2022-12-29T09:39:51;21.23;;;3.75;;
52866;SDS011;38739;53.324;6.862;2022-12-29T09:48:18;15.00;;;2.38;;
52866;SDS011;38739;53.324;6.862;2022-12-29T09:50:52;18.80;;;3.10;;
52866;SDS011;38739;53.324;6.862;2022-12-29T09:53:27;14.15;;;2.55;;
52866;SDS011;38739;53.324;6.862;2022-12-29T09:55:57;15.23;;;3.33;;
52866;SDS011;38739;53.324;6.862;2022-12-29T10:04:44;18.92;;;2.72;;
52866;SDS011;38739;53.324;6.862;2022-12-29T10:10:01;18.63;;;2.90;;
52866;SDS011;38739;53.324;6.862;2022-12-29T10:15:14;12.77;;;2.90;;
52866;SDS011;38739;53.324;6.862;2022-12-29T10:25:45;14.00;;;2.22;;
52866;SDS011;38739;53.324;6.862;2022-12-29T10:28:21;12.40;;;2.35;;
52866;SDS011;38739;53.324;6.862;2022-12-29T10:30:49;12.27;;;2.05;;
52866;SDS011;38739;53.324;6.862;2022-12-29T10:33:30;14.38;;;2.70;;
52866;SDS011;38739;53.324;6.862;2022-12-29T10:36:02;14.32;;;2.80;;
52866;SDS011;38739;53.324;6.862;2022-12-29T10:39:19;13.75;;;3.03;;
52866;SDS011;38739;53.324;6.862;2022-12-29T10:41:51;11.88;;;2.80;;
52866;SDS011;38739;53.324;6.862;2022-12-29T10:44:22;17.33;;;2.75;;
52866;SDS011;38739;53.324;6.862;2022-12-29T10:46:57;16.48;;;2.58;;
52866;SDS011;38739;53.324;6.862;2022-12-29T10:49:32;15.05;;;3.40;;
52866;SDS011;38739;53.324;6.862;2022-12-29T10:52:03;8.93;;;2.00;;
52866;SDS011;38739;53.324;6.862;2022-12-29T10:54:33;10.30;;;1.95;;
52866;SDS011;38739;53.324;6.862;2022-12-29T10:57:10;14.38;;;2.10;;
52866;SDS011;38739;53.324;6.862;2022-12-29T10:59:40;12.70;;;2.40;;
52866;SDS011;38739;53.324;6.862;2022-12-29T11:07:00;13.82;;;2.35;;
52866;SDS011;38739;53.324;6.862;2022-12-29T11:09:27;16.08;;;2.67;;
52866;SDS011;38739;53.324;6.862;2022-12-29T11:11:55;14.95;;;2.67;;
52866;SDS011;38739;53.324;6.862;2022-12-29T11:14:26;19.52;;;2.60;;
52866;SDS011;38739;53.324;6.862;2022-12-29T11:17:01;19.20;;;3.10;;
52866;SDS011;38739;53.324;6.862;2022-12-29T11:19:30;18.83;;;2.97;;
52866;SDS011;38739;53.324;6.862;2022-12-29T11:24:48;20.70;;;3.08;;
52866;SDS011;38739;53.324;6.862;2022-12-29T11:27:18;21.05;;;3.30;;
52866;SDS011;38739;53.324;6.862;2022-12-29T11:29:47;18.65;;;3.65;;
52866;SDS011;38739;53.324;6.862;2022-12-29T11:32:18;22.05;;;3.60;;
52866;SDS011;38739;53.324;6.862;2022-12-29T11:34:46;24.95;;;3.72;;
52866;SDS011;38739;53.324;6.862;2022-12-29T11:37:14;21.98;;;4.22;;
52866;SDS011;38739;53.324;6.862;2022-12-29T11:42:34;21.35;;;3.55;;
52866;SDS011;38739;53.324;6.862;2022-12-29T11:45:06;17.23;;;3.17;;
52866;SDS011;38739;53.324;6.862;2022-12-29T11:47:55;20.52;;;3.95;;
52866;SDS011;38739;53.324;6.862;2022-12-29T11:50:30;17.60;;;3.40;;
52866;SDS011;38739;53.324;6.862;2022-12-29T11:53:00;24.45;;;3.47;;
52866;SDS011;38739;53.324;6.862;2022-12-29T11:55:29;23.15;;;3.53;;
52866;SDS011;38739;53.324;6.862;2022-12-29T11:57:57;28.50;;;3.72;;
52866;SDS011;38739;53.324;6.862;2022-12-29T12:00:26;20.38;;;3.65;;
52866;SDS011;38739;53.324;6.862;2022-12-29T12:03:15;25.20;;;4.18;;
52866;SDS011;38739;53.324;6.862;2022-12-29T12:05:41;17.77;;;2.90;;
52866;SDS011;38739;53.324;6.862;2022-12-29T12:08:19;24.08;;;3.92;;
52866;SDS011;38739;53.324;6.862;2022-12-29T12:11:09;21.92;;;3.15;;
52866;SDS011;38739;53.324;6.862;2022-12-29T12:14:05;14.48;;;2.92;;
52866;SDS011;38739;53.324;6.862;2022-12-29T12:16:56;28.60;;;3.45;;
52866;SDS011;38739;53.324;6.862;2022-12-29T12:19:43;22.73;;;3.60;;
52866;SDS011;38739;53.324;6.862;2022-12-29T12:22:51;21.63;;;3.97;;
52866;SDS011;38739;53.324;6.862;2022-12-29T12:25:33;24.90;;;4.05;;
52866;SDS011;38739;53.324;6.862;2022-12-29T12:30:30;29.60;;;3.78;;
52866;SDS011;38739;53.324;6.862;2022-12-29T12:33:10;16.40;;;2.90;;
52866;SDS011;38739;53.324;6.862;2022-12-29T12:36:22;20.48;;;2.90;;
52866;SDS011;38739;53.324;6.862;2022-12-29T12:39:05;18.80;;;3.38;;
52866;SDS011;38739;53.324;6.862;2022-12-29T12:55:35;16.48;;;2.50;;
52866;SDS011;38739;53.324;6.862;2022-12-29T13:23:49;13.20;;;2.97;;
52866;SDS011;38739;53.324;6.862;2022-12-29T13:26:32;18.98;;;3.30;;
52866;SDS011;38739;53.324;6.862;2022-12-29T13:29:12;16.27;;;3.50;;
52866;SDS011;38739;53.324;6.862;2022-12-29T13:37:19;26.90;;;9.70;;
52866;SDS011;38739;53.324;6.862;2022-12-29T13:40:13;14.68;;;5.15;;
52866;SDS011;38739;53.324;6.862;2022-12-29T13:42:39;16.58;;;4.70;;
52866;SDS011;38739;53.324;6.862;2022-12-29T13:45:10;17.08;;;3.80;;
52866;SDS011;38739;53.324;6.862;2022-12-29T13:47:42;14.10;;;3.90;;
52866;SDS011;38739;53.324;6.862;2022-12-29T13:50:29;15.48;;;3.92;;
52866;SDS011;38739;53.324;6.862;2022-12-29T13:58:33;14.88;;;3.95;;
52866;SDS011;38739;53.324;6.862;2022-12-29T14:01:15;14.77;;;4.22;;
52866;SDS011;38739;53.324;6.862;2022-12-29T14:03:56;15.38;;;3.72;;
52866;SDS011;38739;53.324;6.862;2022-12-29T14:06:34;15.02;;;4.95;;
52866;SDS011;38739;53.324;6.862;2022-12-29T14:09:05;17.05;;;3.50;;
52866;SDS011;38739;53.324;6.862;2022-12-29T14:11:51;10.27;;;2.42;;
52866;SDS011;38739;53.324;6.862;2022-12-29T14:14:21;15.50;;;2.42;;
52866;SDS011;38739;53.324;6.862;2022-12-29T14:16:49;12.35;;;1.80;;
52866;SDS011;38739;53.324;6.862;2022-12-29T14:22:02;16.33;;;3.47;;
52866;SDS011;38739;53.324;6.862;2022-12-29T14:26:58;10.95;;;2.17;;
52866;SDS011;38739;53.324;6.862;2022-12-29T14:31:50;17.88;;;2.88;;
52866;SDS011;38739;53.324;6.862;2022-12-29T14:39:35;10.82;;;1.85;;
52866;SDS011;38739;53.324;6.862;2022-12-29T14:44:33;13.65;;;3.28;;
52866;SDS011;38739;53.324;6.862;2022-12-29T14:47:11;18.45;;;2.50;;
52866;SDS011;38739;53.324;6.862;2022-12-29T14:50:10;12.43;;;2.50;;
52866;SDS011;38739;53.324;6.862;2022-12-29T14:58:06;12.48;;;2.08;;
52866;SDS011;38739;53.324;6.862;2022-12-29T15:00:40;19.05;;;2.13;;
52866;SDS011;38739;53.324;6.862;2022-12-29T15:03:23;15.20;;;2.28;;
52866;SDS011;38739;53.324;6.862;2022-12-29T15:05:55;11.77;;;1.98;;
52866;SDS011;38739;53.324;6.862;2022-12-29T15:08:30;18.95;;;2.50;;
52866;SDS011;38739;53.324;6.862;2022-12-29T15:11:20;13.93;;;2.10;;
52866;SDS011;38739;53.324;6.862;2022-12-29T15:13:48;13.18;;;2.22;;
52866;SDS011;38739;53.324;6.862;2022-12-29T15:16:22;15.05;;;2.65;;
52866;SDS011;38739;53.324;6.862;2022-12-29T15:19:00;18.15;;;2.35;;
52866;SDS011;38739;53.324;6.862;2022-12-29T15:21:33;12.55;;;2.17;;
52866;SDS011;38739;53.324;6.862;2022-12-29T15:24:00;16.70;;;2.80;;
52866;SDS011;38739;53.324;6.862;2022-12-29T15:26:47;17.02;;;3.35;;
52866;SDS011;38739;53.324;6.862;2022-12-29T15:34:56;15.13;;;2.90;;
52866;SDS011;38739;53.324;6.862;2022-12-29T15:37:31;18.10;;;4.22;;
52866;SDS011;38739;53.324;6.862;2022-12-29T15:40:00;17.27;;;2.60;;
52866;SDS011;38739;53.324;6.862;2022-12-29T15:45:03;16.83;;;2.88;;
52866;SDS011;38739;53.324;6.862;2022-12-29T15:47:30;17.25;;;2.35;;
52866;SDS011;38739;53.324;6.862;2022-12-29T15:50:31;19.27;;;3.00;;
52866;SDS011;38739;53.324;6.862;2022-12-29T15:53:26;12.50;;;2.47;;
52866;SDS011;38739;53.324;6.862;2022-12-29T15:55:55;16.77;;;2.83;;
52866;SDS011;38739;53.324;6.862;2022-12-29T15:58:29;17.02;;;2.88;;
52866;SDS011;38739;53.324;6.862;2022-12-29T16:00:57;18.10;;;3.65;;
52866;SDS011;38739;53.324;6.862;2022-12-29T16:03:25;21.05;;;5.85;;
52866;SDS011;38739;53.324;6.862;2022-12-29T16:06:36;17.77;;;3.25;;
52866;SDS011;38739;53.324;6.862;2022-12-29T16:09:05;16.42;;;2.97;;
52866;SDS011;38739;53.324;6.862;2022-12-29T16:14:00;24.30;;;3.72;;
52866;SDS011;38739;53.324;6.862;2022-12-29T16:16:31;22.02;;;7.70;;
52866;SDS011;38739;53.324;6.862;2022-12-29T16:19:03;17.63;;;2.72;;
52866;SDS011;38739;53.324;6.862;2022-12-29T16:21:52;17.10;;;3.13;;
52866;SDS011;38739;53.324;6.862;2022-12-29T16:24:19;13.65;;;2.45;;
52866;SDS011;38739;53.324;6.862;2022-12-29T16:26:48;21.35;;;3.30;;
52866;SDS011;38739;53.324;6.862;2022-12-29T16:29:16;15.55;;;2.72;;
52866;SDS011;38739;53.324;6.862;2022-12-29T16:31:51;16.20;;;2.85;;
52866;SDS011;38739;53.324;6.862;2022-12-29T16:42:45;16.40;;;4.15;;
52866;SDS011;38739;53.324;6.862;2022-12-29T16:50:17;16.45;;;3.65;;
52866;SDS011;38739;53.324;6.862;2022-12-29T16:52:50;12.65;;;2.65;;
52866;SDS011;38739;53.324;6.862;2022-12-29T16:55:16;9.60;;;2.15;;
52866;SDS011;38739;53.324;6.862;2022-12-29T16:57:44;7.57;;;2.03;;
52866;SDS011;38739;53.324;6.862;2022-12-29T17:00:20;11.38;;;2.33;;
52866;SDS011;38739;53.324;6.862;2022-12-29T17:02:48;14.40;;;2.60;;
52866;SDS011;38739;53.324;6.862;2022-12-29T17:05:16;12.48;;;2.75;;
52866;SDS011;38739;53.324;6.862;2022-12-29T17:07:43;11.20;;;2.40;;
52866;SDS011;38739;53.324;6.862;2022-12-29T17:10:09;13.55;;;2.72;;
52866;SDS011;38739;53.324;6.862;2022-12-29T17:12:35;11.57;;;2.60;;
52866;SDS011;38739;53.324;6.862;2022-12-29T17:15:05;11.70;;;2.35;;
52866;SDS011;38739;53.324;6.862;2022-12-29T17:17:41;7.28;;;1.95;;
52866;SDS011;38739;53.324;6.862;2022-12-29T17:20:22;7.40;;;2.20;;
52866;SDS011;38739;53.324;6.862;2022-12-29T17:22:50;6.80;;;1.50;;
52866;SDS011;38739;53.324;6.862;2022-12-29T17:25:19;7.07;;;1.40;;
52866;SDS011;38739;53.324;6.862;2022-12-29T17:27:48;7.15;;;1.45;;
52866;SDS011;38739;53.324;6.862;2022-12-29T17:30:27;5.68;;;1.50;;
52866;SDS011;38739;53.324;6.862;2022-12-29T17:33:04;6.57;;;2.60;;
52866;SDS011;38739;53.324;6.862;2022-12-29T17:35:33;9.38;;;3.75;;
52866;SDS011;38739;53.324;6.862;2022-12-29T17:37:58;6.47;;;2.40;;
52866;SDS011;38739;53.324;6.862;2022-12-29T17:40:28;6.38;;;2.47;;
52866;SDS011;38739;53.324;6.862;2022-12-29T17:42:57;9.73;;;3.17;;
52866;SDS011;38739;53.324;6.862;2022-12-29T17:45:24;10.82;;;2.80;;
52866;SDS011;38739;53.324;6.862;2022-12-29T17:47:51;11.48;;;3.47;;
52866;SDS011;38739;53.324;6.862;2022-12-29T17:50:18;11.07;;;3.63;;
52866;SDS011;38739;53.324;6.862;2022-12-29T17:52:47;11.48;;;3.10;;
52866;SDS011;38739;53.324;6.862;2022-12-29T17:55:22;9.60;;;4.50;;